Time;durP1;ratioP1;P1;durP2;ratioP2;P2;SDS_P1;SDS_P2;PMS_P1;PMS_P2;Temp;Humidity;BMP_temperature;BMP_pressure;BME280_temperature;BME280_humidity;BME280_pressure;Samples;Min_cycle;Max_cycle;Signal;HPM_P1;HPM_P2
2022/06/25 00:01:03;;;;;;;34.83;30.00;;;;;;;17.62;100.00;100474.16;4973554;28;20031;-86
2022/06/25 00:03:29;;;;;;;33.22;29.60;;;;;;;17.61;100.00;100475.06;4973484;28;20114;-86
2022/06/25 00:05:54;;;;;;;35.25;31.38;;;;;;;17.59;100.00;100487.53;4973343;28;20114;-85
2022/06/25 00:08:20;;;;;;;37.47;32.08;;;;;;;17.57;100.00;100484.06;4973088;28;20029;-85
2022/06/25 00:10:45;;;;;;;34.33;30.58;;;;;;;17.56;100.00;100490.28;4973424;28;20042;-86
2022/06/25 00:13:10;;;;;;;35.70;31.80;;;;;;;17.56;100.00;100508.78;4973173;28;20117;-86
2022/06/25 00:15:36;;;;;;;37.13;32.78;;;;;;;17.55;100.00;100507.09;4988318;28;20022;-86
2022/06/25 00:18:01;;;;;;;36.33;31.75;;;;;;;17.54;100.00;100521.22;4989530;28;20026;-86
2022/06/25 00:20:27;;;;;;;40.78;34.83;;;;;;;17.55;100.00;100522.94;4973118;28;20085;-85
2022/06/25 00:22:52;;;;;;;41.03;34.28;;;;;;;17.54;100.00;100521.22;4973167;28;20106;-86
2022/06/25 00:25:17;;;;;;;41.22;33.38;;;;;;;17.51;100.00;100527.50;4973112;28;20035;-85
2022/06/25 00:27:43;;;;;;;41.20;35.17;;;;;;;17.50;100.00;100535.47;4972776;28;20085;-85
2022/06/25 00:30:09;;;;;;;40.83;33.45;;;;;;;17.48;100.00;100542.59;4989379;28;20026;-85
2022/06/25 00:32:34;;;;;;;34.65;30.80;;;;;;;17.46;100.00;100549.75;4972953;28;20480;-85
2022/06/25 00:35:01;;;;;;;39.63;31.45;;;;;;;17.45;100.00;100543.63;4972782;28;20069;-85
2022/06/25 00:37:27;;;;;;;40.35;32.38;;;;;;;17.44;100.00;100551.59;4972730;28;20082;-85
2022/06/25 00:39:52;;;;;;;38.20;31.95;;;;;;;17.44;100.00;100546.31;4972733;28;20404;-86
2022/06/25 00:42:18;;;;;;;41.08;33.00;;;;;;;17.42;100.00;100559.59;4972877;28;20031;-85
2022/06/25 00:44:44;;;;;;;39.25;32.75;;;;;;;17.42;100.00;100570.16;4972960;28;20472;-86
2022/06/25 00:47:13;;;;;;;40.85;33.47;;;;;;;17.39;100.00;100563.25;4972645;28;20033;-84
2022/06/25 00:49:40;;;;;;;37.97;33.53;;;;;;;17.40;100.00;100572.88;4972562;28;20065;-85
2022/06/25 00:52:11;;;;;;;38.88;33.03;;;;;;;17.40;100.00;100569.41;4972532;28;20027;-85
2022/06/25 00:54:38;;;;;;;38.30;32.75;;;;;;;17.38;100.00;100561.56;4972732;28;20055;-85
2022/06/25 00:57:07;;;;;;;39.58;33.15;;;;;;;17.37;100.00;100557.19;4972341;28;20058;-85
2022/06/25 00:59:43;;;;;;;41.40;33.42;;;;;;;17.36;100.00;100558.09;4972536;28;20027;-85
2022/06/25 01:02:08;;;;;;;41.85;35.03;;;;;;;17.37;100.00;100561.63;4972555;28;20437;-86
2022/06/25 01:04:36;;;;;;;43.85;34.40;;;;;;;17.35;100.00;100563.47;4988579;28;20045;-85
2022/06/25 01:07:02;;;;;;;41.25;32.70;;;;;;;17.34;100.00;100572.31;4972407;28;20463;-86
2022/06/25 01:09:27;;;;;;;40.17;32.33;;;;;;;17.32;100.00;100575.03;4972362;28;20050;-85
2022/06/25 01:11:53;;;;;;;37.72;32.53;;;;;;;17.30;100.00;100579.53;4972413;28;20503;-86
2022/06/25 01:14:18;;;;;;;37.03;31.80;;;;;;;17.30;100.00;100587.44;4972357;28;20393;-85
2022/06/25 01:16:43;;;;;;;39.15;31.75;;;;;;;17.29;100.00;100588.38;4972296;28;20037;-85
2022/06/25 01:19:11;;;;;;;41.28;32.15;;;;;;;17.28;100.00;100589.28;4972276;28;20559;-86
2022/06/25 01:21:37;;;;;;;38.38;32.22;;;;;;;17.27;100.00;100598.13;4972352;28;20416;-85
2022/06/25 01:24:05;;;;;;;38.08;31.10;;;;;;;17.26;100.00;100596.44;4972273;28;20604;-85
2022/06/25 01:26:40;;;;;;;36.33;31.65;;;;;;;17.23;100.00;100601.84;4971979;28;20089;-86
2022/06/25 01:29:06;;;;;;;34.92;30.80;;;;;;;17.21;100.00;100598.44;4971938;28;20023;-86
2022/06/25 01:31:32;;;;;;;32.45;29.00;;;;;;;17.19;100.00;100590.59;4972076;28;20423;-86
2022/06/25 01:33:58;;;;;;;33.15;29.40;;;;;;;17.19;100.00;100592.34;4971953;28;20035;-86
2022/06/25 01:36:24;;;;;;;35.50;30.17;;;;;;;17.18;100.00;100588.84;4972128;28;20034;-86
2022/06/25 01:38:49;;;;;;;35.88;30.88;;;;;;;17.18;100.00;100588.00;4971939;28;20023;-86
2022/06/25 01:41:15;;;;;;;35.00;31.17;;;;;;;17.15;100.00;100577.56;4988277;28;20058;-86
2022/06/25 01:43:40;;;;;;;38.15;30.83;;;;;;;17.11;100.00;100582.16;4972095;28;20035;-86
2022/06/25 01:46:08;;;;;;;34.90;27.58;;;;;;;17.11;100.00;100591.84;4972097;28;20117;-86
2022/06/25 01:48:33;;;;;;;32.97;29.33;;;;;;;17.09;100.00;100589.28;4972060;28;20349;-86
2022/06/25 01:50:59;;;;;;;34.15;30.02;;;;;;;17.08;100.00;100597.25;4972102;28;20031;-85
2022/06/25 01:53:24;;;;;;;35.25;31.10;;;;;;;17.05;100.00;100599.09;4971933;28;20027;-85
2022/06/25 01:55:50;;;;;;;32.72;28.85;;;;;;;17.04;100.00;100604.44;4972068;28;20400;-86
2022/06/25 01:58:15;;;;;;;31.52;28.23;;;;;;;17.01;100.00;100602.78;4971691;28;20023;-85
2022/06/25 02:00:41;;;;;;;34.38;28.88;;;;;;;16.99;100.00;100594.09;4971952;28;20081;-85
2022/06/25 02:03:07;;;;;;;34.50;28.58;;;;;;;16.97;100.00;100590.66;4971973;28;20061;-85
2022/06/25 02:08:18;;;;;;;33.90;28.20;;;;;;;16.95;100.00;100589.03;4986016;28;20041;-85
2022/06/25 02:10:44;;;;;;;30.67;27.27;;;;;;;16.94;100.00;100601.38;4988099;28;20031;-85
2022/06/25 02:13:10;;;;;;;30.02;26.83;;;;;;;16.92;100.00;100595.31;4970476;28;20030;-85
2022/06/25 02:15:36;;;;;;;29.27;26.02;;;;;;;16.91;100.00;100596.22;4971930;28;20093;-86
2022/06/25 02:18:01;;;;;;;34.17;28.10;;;;;;;16.90;100.00;100589.22;4971588;28;20085;-85
2022/06/25 02:20:27;;;;;;;29.55;26.40;;;;;;;16.89;100.00;100592.78;4971806;28;20030;-85
2022/06/25 02:22:52;;;;;;;30.60;26.08;;;;;;;16.89;100.00;100590.16;4971926;28;20063;-86
2022/06/25 02:25:18;;;;;;;33.50;27.25;;;;;;;16.88;100.00;100591.91;4971746;28;20370;-86
2022/06/25 02:27:44;;;;;;;29.92;26.65;;;;;;;16.88;100.00;100586.63;4971421;28;20035;-86
2022/06/25 02:30:10;;;;;;;29.83;26.27;;;;;;;16.87;100.00;100599.91;4971623;28;20031;-86
2022/06/25 02:32:35;;;;;;;28.77;25.33;;;;;;;16.85;100.00;100599.97;4971711;28;20396;-86
2022/06/25 02:35:01;;;;;;;28.27;25.17;;;;;;;16.85;100.00;100599.09;4971719;28;20031;-86
2022/06/25 02:37:27;;;;;;;27.45;24.52;;;;;;;16.83;100.00;100603.59;4971464;28;20389;-86
2022/06/25 02:39:52;;;;;;;28.85;24.92;;;;;;;16.82;100.00;100600.09;4974289;28;20037;-85
2022/06/25 02:42:17;;;;;;;27.15;24.30;;;;;;;16.81;100.00;100600.16;4974960;28;20358;-86
2022/06/25 02:44:43;;;;;;;27.42;24.50;;;;;;;16.79;100.00;100607.28;4991264;28;20318;-86
2022/06/25 02:47:08;;;;;;;25.40;22.80;;;;;;;16.79;100.00;100615.19;4974871;28;20501;-85
2022/06/25 02:49:34;;;;;;;25.27;22.73;;;;;;;16.76;100.00;100617.97;4974835;28;20034;-86
2022/06/25 02:51:59;;;;;;;26.30;23.55;;;;;;;16.73;100.00;100619.81;4974683;28;20031;-86
2022/06/25 02:54:25;;;;;;;25.65;23.15;;;;;;;16.72;100.00;100619.88;4974717;28;20034;-85
2022/06/25 02:59:40;;;;;;;28.00;24.95;;;;;;;16.70;100.00;100619.06;4988977;28;20039;-86
2022/06/25 03:02:06;;;;;;;27.05;24.20;;;;;;;16.69;100.00;100620.88;4974672;28;20023;-86
2022/06/25 03:04:31;;;;;;;27.63;24.73;;;;;;;16.66;100.00;100615.75;4974597;28;20018;-85
2022/06/25 03:06:57;;;;;;;27.35;24.55;;;;;;;16.67;100.00;100624.50;4974372;28;20130;-86
2022/06/25 03:09:23;;;;;;;27.95;25.02;;;;;;;16.65;100.00;100621.94;4974939;28;20094;-86
2022/06/25 03:11:49;;;;;;;27.98;24.98;;;;;;;16.65;100.00;100618.44;4974487;28;20386;-86
2022/06/25 03:14:15;;;;;;;29.85;26.33;;;;;;;16.65;100.00;100626.34;4974414;28;20031;-85
2022/06/25 03:16:41;;;;;;;28.88;25.88;;;;;;;16.65;100.00;100616.66;4974281;28;20027;-86
2022/06/25 03:19:06;;;;;;;26.88;23.95;;;;;;;16.64;100.00;100619.34;4974094;28;20035;-86
2022/06/25 03:21:32;;;;;;;27.80;23.95;;;;;;;16.64;100.00;100620.19;4974184;28;20045;-86
2022/06/25 03:23:57;;;;;;;26.73;23.42;;;;;;;16.65;100.00;100626.34;4974444;28;20445;-86
2022/06/25 03:26:23;;;;;;;27.63;24.65;;;;;;;16.65;100.00;100621.94;4974028;28;20078;-86
2022/06/25 03:28:48;;;;;;;26.02;23.38;;;;;;;16.63;100.00;100621.13;4973806;28;20023;-86
2022/06/25 03:31:13;;;;;;;26.55;23.85;;;;;;;16.63;100.00;100623.75;4990096;28;20035;-86
2022/06/25 03:33:39;;;;;;;26.08;23.25;;;;;;;16.62;100.00;100622.06;4973868;28;20019;-86
2022/06/25 03:36:04;;;;;;;25.42;22.77;;;;;;;16.62;100.00;100622.06;4974172;28;20029;-87
2022/06/25 03:38:30;;;;;;;23.92;21.58;;;;;;;16.62;100.00;100624.69;4973886;28;20023;-85
2022/06/25 03:43:39;;;;;;;23.80;21.35;;;;;;;16.62;100.00;100622.06;4988142;28;20037;-86
2022/06/25 03:46:05;;;;;;;24.25;21.77;;;;;;;16.62;100.00;100624.69;4973735;28;20113;-86
2022/06/25 03:48:31;;;;;;;24.15;21.85;;;;;;;16.62;100.00;100627.34;4973672;28;20023;-86
2022/06/25 03:50:56;;;;;;;23.02;20.73;;;;;;;16.63;100.00;100618.47;4973419;28;20026;-87
2022/06/25 03:53:21;;;;;;;24.50;22.15;;;;;;;16.65;100.00;100624.56;4973547;28;20400;-87
2022/06/25 03:55:47;;;;;;;23.35;21.00;;;;;;;16.65;100.00;100623.72;4973669;28;20027;-86
2022/06/25 03:58:12;;;;;;;23.42;21.13;;;;;;;16.67;100.00;100624.50;4973286;28;20066;-86
2022/06/25 04:00:38;;;;;;;22.20;20.08;;;;;;;16.67;100.00;100625.34;4973429;28;20113;-86
2022/06/25 04:03:03;;;;;;;22.02;20.10;;;;;;;16.68;100.00;100628.84;4989731;28;20065;-87
2022/06/25 04:05:29;;;;;;;22.52;20.17;;;;;;;16.69;100.00;100641.97;4973320;28;20084;-86
2022/06/25 04:07:54;;;;;;;21.80;19.65;;;;;;;16.71;100.00;100641.91;4973168;28;20435;-86
2022/06/25 04:10:19;;;;;;;21.40;19.33;;;;;;;16.72;100.00;100644.47;4973237;28;20467;-86
2022/06/25 04:12:45;;;;;;;23.05;20.83;;;;;;;16.72;100.00;100655.00;4973232;28;20023;-86
2022/06/25 04:15:10;;;;;;;20.65;18.65;;;;;;;16.72;100.00;100643.63;4973267;28;20500;-86
2022/06/25 04:17:36;;;;;;;21.20;19.17;;;;;;;16.75;100.00;100647.91;4972842;28;20117;-86
2022/06/25 04:20:02;;;;;;;20.80;18.80;;;;;;;16.75;100.00;100647.91;4973185;28;20081;-86
2022/06/25 04:22:27;;;;;;;21.88;19.38;;;;;;;16.74;100.00;100649.66;4973002;28;20023;-86
2022/06/25 04:24:53;;;;;;;22.05;20.00;;;;;;;16.73;100.00;100648.81;4990884;23;20021;-84
2022/06/25 04:30:03;;;;;;;22.15;20.15;;;;;;;16.72;100.00;100647.09;4992626;28;20037;-85
2022/06/25 04:32:28;;;;;;;21.48;19.50;;;;;;;16.72;100.00;100655.00;4992479;28;20026;-85
2022/06/25 04:34:54;;;;;;;23.02;20.73;;;;;;;16.75;100.00;100653.19;4992427;28;20030;-85
2022/06/25 04:37:19;;;;;;;23.38;20.95;;;;;;;16.75;100.00;100656.66;4992434;28;20026;-85
2022/06/25 04:39:45;;;;;;;24.80;22.48;;;;;;;16.76;100.00;100661.03;5008586;28;20030;-84
2022/06/25 04:42:10;;;;;;;24.88;22.35;;;;;;;16.77;100.00;100662.75;4992276;28;20109;-85
2022/06/25 04:44:35;;;;;;;23.08;20.88;;;;;;;16.78;100.00;100663.59;4992665;28;20030;-84
2022/06/25 04:47:01;;;;;;;24.75;22.33;;;;;;;16.80;100.00;100670.53;4992203;28;20033;-85
2022/06/25 04:49:26;;;;;;;24.27;21.98;;;;;;;16.81;100.00;100668.72;4976177;28;20018;-84
2022/06/25 04:51:52;;;;;;;23.70;21.45;;;;;;;16.82;100.00;100666.03;4992131;28;20023;-84
2022/06/25 04:54:17;;;;;;;23.20;20.90;;;;;;;16.82;100.00;100666.03;4992030;28;20027;-84
2022/06/25 04:56:42;;;;;;;23.48;21.23;;;;;;;16.84;100.00;100674.75;4992066;28;20480;-85
2022/06/25 04:59:08;;;;;;;23.73;21.27;;;;;;;16.85;100.00;100671.19;4991920;28;20113;-85
2022/06/25 05:01:33;;;;;;;23.58;21.17;;;;;;;16.86;100.00;100677.31;4993735;28;20480;-85
2022/06/25 05:03:59;;;;;;;22.45;20.23;;;;;;;16.89;100.00;100682.47;4993948;28;20026;-83
2022/06/25 05:06:24;;;;;;;24.80;22.05;;;;;;;16.90;100.00;100679.78;4995002;28;20462;-84
2022/06/25 05:08:49;;;;;;;23.75;21.40;;;;;;;16.94;100.00;100687.59;4992709;28;20026;-84
2022/06/25 05:11:15;;;;;;;23.27;21.10;;;;;;;16.97;100.00;100688.28;4992778;28;20034;-84
2022/06/25 05:13:40;;;;;;;23.30;21.13;;;;;;;17.00;100.00;100682.03;4992063;28;20064;-84
2022/06/25 05:16:06;;;;;;;23.02;20.70;;;;;;;17.01;100.00;100687.22;4992221;28;20095;-84
2022/06/25 05:18:33;;;;;;;23.88;21.55;;;;;;;17.03;100.00;100690.69;4993150;28;20037;-84
2022/06/25 05:20:58;;;;;;;21.30;19.02;;;;;;;17.04;100.00;100681.84;4991463;28;20054;-84
2022/06/25 05:23:23;;;;;;;21.60;19.52;;;;;;;17.09;100.00;100686.06;4975828;28;20053;-84
2022/06/25 05:25:49;;;;;;;22.60;20.20;;;;;;;17.12;100.00;100693.84;4991631;28;20026;-85
2022/06/25 05:28:15;;;;;;;22.23;20.13;;;;;;;17.14;100.00;100691.97;4991417;28;20034;-84
2022/06/25 05:30:41;;;;;;;21.42;19.42;;;;;;;17.17;100.00;100700.63;4991787;28;20034;-84
2022/06/25 05:33:06;;;;;;;22.77;20.48;;;;;;;17.22;100.00;100703.94;4991409;28;20502;-84
2022/06/25 05:35:32;;;;;;;20.92;18.95;;;;;;;17.27;100.00;100714.28;4991820;28;20095;-84
2022/06/25 05:37:57;;;;;;;22.52;20.30;;;;;;;17.30;100.00;100716.81;4991577;28;20033;-84
2022/06/25 05:40:23;;;;;;;23.38;21.15;;;;;;;17.35;100.00;100712.16;4991511;28;20032;-85
2022/06/25 05:42:48;;;;;;;23.50;21.02;;;;;;;17.38;100.00;100712.03;4991223;28;20018;-84
2022/06/25 05:45:14;;;;;;;22.02;19.70;;;;;;;17.47;100.00;100723.13;4991557;28;20046;-85
2022/06/25 05:47:39;;;;;;;22.13;19.92;;;;;;;17.50;100.00;100720.31;4991280;28;20034;-84
2022/06/25 05:50:06;;;;;;;21.52;19.27;;;;;;;17.55;100.00;100726.28;4991289;28;20030;-84
2022/06/25 05:52:31;;;;;;;19.83;18.10;;;;;;;17.62;100.00;100734.78;4975151;28;20102;-84
2022/06/25 05:54:57;;;;;;;19.55;17.65;;;;;;;17.66;100.00;100731.91;4991611;28;20137;-84
2022/06/25 05:57:22;;;;;;;19.17;17.38;;;;;;;17.71;100.00;100735.22;4991185;28;20524;-85
2022/06/25 05:59:47;;;;;;;17.77;15.82;;;;;;;17.78;100.00;100740.19;4991480;28;20093;-84
2022/06/25 06:02:13;;;;;;;14.35;13.25;;;;;;;17.82;100.00;100736.47;4991383;28;20484;-84
2022/06/25 06:04:38;;;;;;;15.60;14.25;;;;;;;17.86;100.00;100738.94;4991385;28;20122;-84
2022/06/25 06:07:05;;;;;;;13.95;12.65;;;;;;;17.89;100.00;100744.06;4991349;28;20027;-84
2022/06/25 06:09:32;;;;;;;11.75;10.85;;;;;;;17.91;100.00;100746.63;4991047;28;20049;-84
2022/06/25 06:11:58;;;;;;;11.45;10.57;;;;;;;17.93;100.00;100747.47;4990926;28;20026;-84
2022/06/25 06:14:24;;;;;;;9.85;9.15;;;;;;;17.95;100.00;100748.25;4995017;28;20014;-84
2022/06/25 06:16:50;;;;;;;9.30;8.70;;;;;;;17.98;100.00;100752.53;4995147;28;20034;-84
2022/06/25 06:19:15;;;;;;;9.77;9.18;;;;;;;18.00;100.00;100756.81;4978417;28;20553;-84
2022/06/25 06:21:41;;;;;;;8.75;8.23;;;;;;;18.02;100.00;100760.22;4978665;28;20030;-84
2022/06/25 06:24:06;;;;;;;8.20;7.80;;;;;;;18.02;100.00;100748.81;4978665;28;20112;-84
2022/06/25 06:26:33;;;;;;;8.60;7.78;;;;;;;18.08;100.00;100757.31;4978422;28;20030;-84
2022/06/25 06:28:58;;;;;;;7.78;7.38;;;;;;;18.14;100.00;100755.31;4978458;28;20117;-84
2022/06/25 06:31:23;;;;;;;6.72;6.28;;;;;;;18.16;100.00;100759.63;4978603;28;20556;-84
2022/06/25 06:33:49;;;;;;;6.95;6.53;;;;;;;18.17;100.00;100761.31;4996006;28;20022;-84
2022/06/25 06:36:14;;;;;;;6.63;6.32;;;;;;;18.19;100.00;100763.91;4978452;28;20510;-84
2022/06/25 06:38:40;;;;;;;8.25;7.72;;;;;;;18.16;100.00;100772.84;4978007;28;20026;-84
2022/06/25 06:41:05;;;;;;;7.90;7.50;;;;;;;18.18;100.00;100770.97;4978376;28;20026;-84
2022/06/25 06:43:31;;;;;;;8.07;7.47;;;;;;;18.19;100.00;100771.84;4978085;28;20529;-84
2022/06/25 06:45:56;;;;;;;7.30;6.82;;;;;;;18.23;100.00;100768.13;4994859;28;20118;-84
2022/06/25 06:48:22;;;;;;;7.93;7.32;;;;;;;18.25;100.00;100776.81;4994296;28;20033;-84
2022/06/25 06:50:48;;;;;;;7.40;7.00;;;;;;;18.29;99.80;100770.47;4978104;28;20113;-84
2022/06/25 06:53:13;;;;;;;5.95;5.68;;;;;;;18.32;99.13;100777.38;4978716;28;20018;-83
2022/06/25 06:55:38;;;;;;;7.47;6.80;;;;;;;18.36;99.72;100782.44;4978869;28;20068;-83
2022/06/25 06:58:04;;;;;;;8.30;7.65;;;;;;;18.41;99.91;100783.09;4994333;28;20030;-83
2022/06/25 07:00:29;;;;;;;8.98;8.15;;;;;;;18.45;99.48;100777.66;4978854;28;20286;-84
2022/06/25 07:02:55;;;;;;;7.90;7.32;;;;;;;18.50;97.01;100786.22;4978470;28;20054;-83
2022/06/25 07:05:20;;;;;;;8.07;7.57;;;;;;;18.56;97.83;100785.94;4979397;28;20026;-84
2022/06/25 07:07:47;;;;;;;7.85;7.25;;;;;;;18.61;97.75;100788.34;4978538;28;20484;-83
2022/06/25 07:10:13;;;;;;;8.20;7.57;;;;;;;18.66;97.43;100789.84;4978174;28;20188;-84
2022/06/25 07:12:39;;;;;;;9.40;8.80;;;;;;;18.72;97.05;100786.06;4977856;28;20069;-84
2022/06/25 07:15:05;;;;;;;9.98;9.27;;;;;;;18.75;96.50;100784.09;4978500;28;20053;-84
2022/06/25 07:17:30;;;;;;;7.97;7.47;;;;;;;18.80;95.87;100783.91;4977630;28;20031;-84
2022/06/25 07:19:56;;;;;;;9.10;8.50;;;;;;;18.84;96.20;100785.47;4977616;28;20022;-84
2022/06/25 07:22:21;;;;;;;9.27;8.50;;;;;;;18.90;95.10;100784.34;4993441;28;20030;-83
2022/06/25 07:24:47;;;;;;;7.68;7.13;;;;;;;18.92;93.46;100787.75;4975950;28;20495;-84
2022/06/25 07:27:12;;;;;;;7.18;6.55;;;;;;;18.97;94.11;100776.94;4990234;28;20057;-83
2022/06/25 07:29:38;;;;;;;7.68;7.28;;;;;;;19.00;93.21;100780.28;5009375;28;20058;-84
2022/06/25 07:32:04;;;;;;;7.57;7.18;;;;;;;19.04;93.40;100781.84;4998746;28;20030;-83
2022/06/25 07:34:29;;;;;;;7.30;6.90;;;;;;;19.09;93.42;100779.81;4966190;28;20042;-83
2022/06/25 07:36:55;;;;;;;8.40;7.80;;;;;;;19.13;92.57;100784.94;4993296;28;20034;-84
2022/06/25 07:39:20;;;;;;;8.32;7.93;;;;;;;19.20;94.13;100783.72;4995357;28;20065;-84
2022/06/25 07:41:46;;;;;;;7.32;6.93;;;;;;;19.20;94.69;100781.06;4993457;28;20033;-84
2022/06/25 07:44:12;;;;;;;7.13;6.72;;;;;;;19.20;92.24;100786.38;4977364;28;20062;-84
2022/06/25 07:46:37;;;;;;;7.15;6.22;;;;;;;19.22;91.07;100784.47;4978825;28;20169;-83
2022/06/25 07:49:03;;;;;;;6.85;6.25;;;;;;;19.23;90.19;100791.50;4992571;28;20035;-84
2022/06/25 07:54:12;;;;;;;7.20;6.75;;;;;;;19.32;86.38;100796.34;4994115;28;20089;-84
2022/06/25 07:56:37;;;;;;;9.23;8.68;;;;;;;19.36;88.13;100791.72;4994033;28;20031;-83
2022/06/25 07:59:03;;;;;;;8.30;7.82;;;;;;;19.40;89.66;100788.84;4993613;28;20534;-83
2022/06/25 08:01:29;;;;;;;10.70;9.90;;;;;;;19.47;89.47;100793.81;4977434;28;20045;-83
2022/06/25 08:03:54;;;;;;;10.52;9.63;;;;;;;19.53;90.53;100798.81;4977025;28;20110;-84
2022/06/25 08:06:20;;;;;;;10.55;9.80;;;;;;;19.56;89.29;100798.63;4979069;28;20030;-84
2022/06/25 08:08:45;;;;;;;10.38;9.77;;;;;;;19.62;89.13;100798.31;4975761;28;20057;-85
2022/06/25 08:11:11;;;;;;;9.50;8.85;;;;;;;19.67;90.75;100804.22;4976594;28;20129;-85
2022/06/25 08:13:37;;;;;;;11.15;10.43;;;;;;;19.70;89.85;100800.56;4976613;28;20080;-85
2022/06/25 08:16:04;;;;;;;9.70;9.05;;;;;;;19.75;89.27;100796.72;4976816;28;20065;-85
2022/06/25 08:18:29;;;;;;;8.20;7.53;;;;;;;19.83;89.41;100800.81;4976276;28;20036;-85
2022/06/25 08:20:55;;;;;;;11.23;10.50;;;;;;;19.90;88.55;100796.88;4993002;28;20026;-85
2022/06/25 08:23:20;;;;;;;11.73;10.73;;;;;;;19.97;86.72;100803.56;4976788;28;20029;-85
2022/06/25 08:25:45;;;;;;;11.18;10.38;;;;;;;20.04;86.30;100806.72;4976426;28;20461;-85
2022/06/25 08:28:11;;;;;;;10.05;9.25;;;;;;;20.11;87.52;100810.78;4976189;28;20085;-85
2022/06/25 08:30:39;;;;;;;11.80;10.82;;;;;;;20.16;86.88;100798.09;4992601;28;20032;-85
2022/06/25 08:33:04;;;;;;;11.23;10.38;;;;;;;20.28;86.46;100807.19;4992638;28;20018;-85
2022/06/25 08:35:30;;;;;;;11.98;11.07;;;;;;;20.35;85.02;100803.25;4992372;28;20029;-85
2022/06/25 08:37:56;;;;;;;12.15;11.25;;;;;;;20.39;84.61;100798.66;4975562;28;20049;-85
2022/06/25 08:40:21;;;;;;;11.20;10.40;;;;;;;20.38;84.60;100802.22;4976287;28;20026;-85
2022/06/25 08:42:49;;;;;;;9.90;9.20;;;;;;;20.32;82.98;100816.69;4976184;28;20023;-85
2022/06/25 08:45:18;;;;;;;10.55;9.75;;;;;;;20.31;83.93;100807.00;4976427;28;20026;-85
2022/06/25 08:47:46;;;;;;;9.60;8.90;;;;;;;20.34;83.99;100809.53;4976847;28;20065;-84
2022/06/25 08:50:29;;;;;;;10.40;9.60;;;;;;;20.39;82.64;100807.44;4996373;28;20034;-84
2022/06/25 08:52:55;;;;;;;9.68;9.07;;;;;;;20.44;82.61;100813.34;4978581;28;20289;-84
2022/06/25 08:55:39;;;;;;;7.10;6.65;;;;;;;20.44;79.11;100813.34;4981250;28;20659;-84
2022/06/25 08:58:05;;;;;;;5.78;5.38;;;;;;;20.46;76.81;100807.97;4993681;28;20026;-84
2022/06/25 09:00:34;;;;;;;4.47;4.20;;;;;;;20.48;76.55;100807.88;4975536;28;20027;-84
2022/06/25 09:03:00;;;;;;;3.75;3.45;;;;;;;20.45;77.69;100803.63;4973758;28;20019;-84
2022/06/25 09:05:37;;;;;;;4.13;3.90;;;;;;;20.44;75.63;100802.75;4975231;28;20648;-84
2022/06/25 09:08:05;;;;;;;5.53;5.13;;;;;;;20.42;76.30;100799.34;4975463;28;20052;-84
2022/06/25 09:10:31;;;;;;;5.45;5.15;;;;;;;20.42;77.90;100806.44;4976131;28;20029;-84
2022/06/25 09:12:59;;;;;;;6.50;6.03;;;;;;;20.41;77.62;100802.94;4976826;28;20022;-83
2022/06/25 09:15:31;;;;;;;7.10;6.60;;;;;;;20.43;77.45;100806.34;4975799;28;20034;-84
2022/06/25 09:17:57;;;;;;;5.50;5.18;;;;;;;20.45;77.93;100798.31;4990972;28;20456;-84
2022/06/25 09:20:23;;;;;;;3.60;3.40;;;;;;;20.47;76.37;100796.41;4991875;28;20026;-84
2022/06/25 09:22:57;;;;;;;3.30;3.10;;;;;;;20.54;76.09;100797.78;4991611;28;20483;-84
2022/06/25 09:25:24;;;;;;;2.80;2.60;;;;;;;20.63;76.50;100785.81;4973711;28;20042;-84
2022/06/25 09:27:50;;;;;;;2.72;2.63;;;;;;;20.69;75.84;100795.25;4971740;28;20045;-85
2022/06/25 09:30:19;;;;;;;3.03;2.90;;;;;;;20.73;76.38;100797.63;4988329;28;20540;-84
2022/06/25 09:32:56;;;;;;;3.58;3.38;;;;;;;20.80;78.98;100797.28;4972520;28;20527;-84
2022/06/25 09:35:39;;;;;;;3.83;3.63;;;;;;;20.83;75.84;100791.78;4974712;28;20121;-84
2022/06/25 09:38:06;;;;;;;3.05;2.95;;;;;;;20.89;75.91;100786.13;4990186;28;20056;-84
2022/06/25 09:40:32;;;;;;;3.55;3.35;;;;;;;20.96;74.85;100787.47;4988002;28;20074;-84
2022/06/25 09:42:58;;;;;;;3.10;3.00;;;;;;;21.08;70.03;100784.09;4972315;28;20097;-83
2022/06/25 09:45:26;;;;;;;3.10;2.95;;;;;;;21.18;71.30;100788.88;4975360;28;20038;-83
2022/06/25 09:47:54;;;;;;;3.20;3.08;;;;;;;21.27;71.89;100786.53;4992785;28;20026;-85
2022/06/25 09:50:20;;;;;;;3.42;3.33;;;;;;;21.33;72.58;100798.56;4979225;28;20498;-86
2022/06/25 09:52:59;;;;;;;3.70;3.50;;;;;;;21.34;72.17;100800.28;4995370;28;20018;-86
2022/06/25 09:55:26;;;;;;;3.80;3.50;;;;;;;21.32;70.94;100799.50;4979413;28;20030;-86
2022/06/25 09:57:52;;;;;;;4.57;3.53;;;;;;;21.26;71.14;100798.09;4978227;28;20029;-86
2022/06/25 10:00:22;;;;;;;3.05;2.90;;;;;;;21.22;70.96;100806.34;4978905;28;20037;-86
2022/06/25 10:02:49;;;;;;;3.13;2.90;;;;;;;21.14;71.38;100796.16;4978978;28;20088;-86
2022/06/25 10:05:22;;;;;;;7.18;6.68;;;;;;;21.08;70.34;100800.03;4978402;28;20030;-87
2022/06/25 10:08:01;;;;;;;3.58;3.38;;;;;;;21.06;70.75;100799.25;4982213;28;20397;-86
2022/06/25 10:10:34;;;;;;;2.90;2.80;;;;;;;21.10;70.46;100790.19;4977205;28;20608;-86
2022/06/25 10:13:00;;;;;;;2.75;2.65;;;;;;;21.19;69.30;100787.94;4993204;28;20515;-86
2022/06/25 10:15:26;;;;;;;2.33;2.22;;;;;;;21.29;69.84;100794.38;4978212;28;20065;-87
2022/06/25 10:17:52;;;;;;;2.95;2.75;;;;;;;21.34;70.69;100797.63;4978049;28;20046;-86
2022/06/25 10:20:18;;;;;;;3.25;3.15;;;;;;;21.37;70.60;100793.94;4975373;28;20030;-86
2022/06/25 10:22:46;;;;;;;2.90;2.80;;;;;;;21.39;68.26;100797.34;4975449;28;20122;-88
2022/06/25 10:56:13;;;;;;;2.63;2.53;;;;;;;21.74;67.73;100781.94;4994030;28;20531;-85
2022/06/25 10:58:44;;;;;;;3.05;2.85;;;;;;;21.66;67.82;100778.91;4977666;28;20113;-86
2022/06/25 11:01:21;;;;;;;3.00;2.90;;;;;;;21.63;69.73;100779.09;4978326;28;20038;-86
2022/06/25 11:03:51;;;;;;;3.33;3.13;;;;;;;21.63;71.43;100779.09;4978520;28;20224;-86
2022/06/25 11:06:22;;;;;;;2.75;2.65;;;;;;;21.60;66.52;100779.28;4978232;28;20026;-87
2022/06/25 11:08:48;;;;;;;2.88;2.78;;;;;;;21.66;65.44;100776.25;4994353;28;20022;-86
2022/06/25 11:11:24;;;;;;;2.30;2.20;;;;;;;21.82;67.06;100780.63;4978265;28;20022;-87
2022/06/25 11:13:49;;;;;;;2.50;2.40;;;;;;;21.94;62.67;100787.84;4978295;28;20034;-87
2022/06/25 11:16:16;;;;;;;2.42;2.33;;;;;;;22.07;63.10;100786.13;4978487;28;20117;-87
2022/06/25 11:18:46;;;;;;;4.13;2.30;;;;;;;22.14;64.19;100780.41;4977883;28;20026;-87
2022/06/25 11:21:27;;;;;;;2.38;2.20;;;;;;;22.14;62.19;100783.91;4977803;28;20058;-87
2022/06/25 11:23:53;;;;;;;2.40;2.22;;;;;;;22.25;65.62;100783.22;4977963;28;20030;-87
2022/06/25 11:29:03;;;;;;;2.77;2.57;;;;;;;22.54;64.88;100788.53;4994301;28;20554;-86
2022/06/25 11:31:28;;;;;;;2.50;2.30;;;;;;;22.70;62.36;100789.22;4977891;28;20026;-87
2022/06/25 11:33:54;;;;;;;2.22;2.13;;;;;;;22.83;61.68;100783.94;4977928;28;20048;-87
2022/06/25 11:36:20;;;;;;;2.28;2.17;;;;;;;22.94;60.89;100786.72;4978178;28;20033;-88
2022/06/25 11:38:51;;;;;;;1.83;1.83;;;;;;;23.03;58.37;100795.03;4977758;28;20391;-87
2022/06/25 11:41:23;;;;;;;2.20;2.10;;;;;;;23.06;57.81;100790.38;4977587;28;20460;-86
2022/06/25 11:43:50;;;;;;;2.65;1.90;;;;;;;23.09;59.03;100794.66;4994031;28;20030;-87
2022/06/25 11:46:18;;;;;;;2.50;1.90;;;;;;;23.15;57.94;100790.75;4993968;28;20034;-87
2022/06/25 11:48:46;;;;;;;2.40;2.30;;;;;;;23.17;58.51;100786.19;4992265;28;20026;-85
2022/06/25 11:51:13;;;;;;;2.65;1.90;;;;;;;23.18;59.68;100787.84;4989409;28;20030;-86
2022/06/25 11:53:39;;;;;;;2.38;2.25;;;;;;;23.16;59.64;100800.44;4991181;28;20122;-85
2022/06/25 11:56:05;;;;;;;2.03;1.92;;;;;;;23.14;63.55;100787.25;4986018;28;20417;-88